sensor_id;sensor_type;location;lat;lon;timestamp;P1;durP1;ratioP1;P2;durP2;ratioP2
74320;SDS011;62738;45.772;4.804;2022-10-30T00:00:34;9.43;;;5.00;;
74320;SDS011;62738;45.772;4.804;2022-10-30T00:03:01;14.32;;;5.32;;
74320;SDS011;62738;45.772;4.804;2022-10-30T00:05:28;11.90;;;5.63;;
74320;SDS011;62738;45.772;4.804;2022-10-30T00:07:55;11.85;;;4.95;;
74320;SDS011;62738;45.772;4.804;2022-10-30T00:10:22;10.90;;;5.00;;
74320;SDS011;62738;45.772;4.804;2022-10-30T00:12:49;12.48;;;4.78;;
74320;SDS011;62738;45.772;4.804;2022-10-30T00:15:16;13.25;;;5.30;;
74320;SDS011;62738;45.772;4.804;2022-10-30T00:17:43;11.05;;;5.22;;
74320;SDS011;62738;45.772;4.804;2022-10-30T00:20:09;10.68;;;4.85;;
74320;SDS011;62738;45.772;4.804;2022-10-30T00:22:36;8.15;;;4.57;;
74320;SDS011;62738;45.772;4.804;2022-10-30T00:25:03;11.15;;;4.88;;
74320;SDS011;62738;45.772;4.804;2022-10-30T00:27:30;9.35;;;5.20;;
74320;SDS011;62738;45.772;4.804;2022-10-30T00:29:56;14.40;;;5.65;;
74320;SDS011;62738;45.772;4.804;2022-10-30T00:32:23;13.45;;;4.75;;
74320;SDS011;62738;45.772;4.804;2022-10-30T00:34:50;11.52;;;4.57;;
74320;SDS011;62738;45.772;4.804;2022-10-30T00:37:16;9.68;;;4.70;;
74320;SDS011;62738;45.772;4.804;2022-10-30T00:39:43;10.70;;;4.70;;
74320;SDS011;62738;45.772;4.804;2022-10-30T00:42:11;13.85;;;4.70;;
74320;SDS011;62738;45.772;4.804;2022-10-30T00:47:09;10.50;;;4.75;;
74320;SDS011;62738;45.772;4.804;2022-10-30T00:49:48;10.00;;;4.75;;
74320;SDS011;62738;45.772;4.804;2022-10-30T00:52:18;9.27;;;4.15;;
74320;SDS011;62738;45.772;4.804;2022-10-30T00:54:47;11.60;;;4.68;;
74320;SDS011;62738;45.772;4.804;2022-10-30T00:57:14;7.32;;;4.18;;
74320;SDS011;62738;45.772;4.804;2022-10-30T00:59:41;11.85;;;4.80;;
74320;SDS011;62738;45.772;4.804;2022-10-30T01:02:07;8.90;;;4.53;;
74320;SDS011;62738;45.772;4.804;2022-10-30T01:04:35;15.68;;;5.65;;
74320;SDS011;62738;45.772;4.804;2022-10-30T01:07:11;9.98;;;4.82;;
74320;SDS011;62738;45.772;4.804;2022-10-30T01:09:40;12.32;;;4.53;;
74320;SDS011;62738;45.772;4.804;2022-10-30T01:12:07;12.63;;;5.03;;
74320;SDS011;62738;45.772;4.804;2022-10-30T01:14:35;8.25;;;5.00;;
74320;SDS011;62738;45.772;4.804;2022-10-30T01:17:09;9.95;;;4.78;;
74320;SDS011;62738;45.772;4.804;2022-10-30T01:19:55;11.90;;;5.13;;
74320;SDS011;62738;45.772;4.804;2022-10-30T01:27:34;12.80;;;5.40;;
74320;SDS011;62738;45.772;4.804;2022-10-30T01:33:00;10.85;;;5.60;;
74320;SDS011;62738;45.772;4.804;2022-10-30T01:35:39;10.93;;;5.47;;
74320;SDS011;62738;45.772;4.804;2022-10-30T01:38:16;11.43;;;5.57;;
74320;SDS011;62738;45.772;4.804;2022-10-30T01:40:49;12.30;;;4.93;;
74320;SDS011;62738;45.772;4.804;2022-10-30T01:43:16;14.35;;;5.10;;
74320;SDS011;62738;45.772;4.804;2022-10-30T01:57:11;12.85;;;4.88;;
74320;SDS011;62738;45.772;4.804;2022-10-30T01:59:55;11.35;;;5.40;;
74320;SDS011;62738;45.772;4.804;2022-10-30T02:02:31;10.48;;;5.10;;
74320;SDS011;62738;45.772;4.804;2022-10-30T02:04:59;10.07;;;5.13;;
74320;SDS011;62738;45.772;4.804;2022-10-30T02:07:26;15.43;;;5.50;;
74320;SDS011;62738;45.772;4.804;2022-10-30T02:09:53;9.38;;;4.65;;
74320;SDS011;62738;45.772;4.804;2022-10-30T02:12:20;11.02;;;4.50;;
74320;SDS011;62738;45.772;4.804;2022-10-30T02:14:52;8.15;;;4.30;;
74320;SDS011;62738;45.772;4.804;2022-10-30T02:17:21;8.73;;;4.47;;
74320;SDS011;62738;45.772;4.804;2022-10-30T02:19:48;15.43;;;6.22;;
74320;SDS011;62738;45.772;4.804;2022-10-30T02:22:15;12.48;;;4.50;;
74320;SDS011;62738;45.772;4.804;2022-10-30T02:24:43;9.57;;;5.07;;
74320;SDS011;62738;45.772;4.804;2022-10-30T02:27:10;10.25;;;4.97;;
74320;SDS011;62738;45.772;4.804;2022-10-30T02:29:37;12.10;;;5.03;;
74320;SDS011;62738;45.772;4.804;2022-10-30T02:32:03;11.90;;;5.25;;
74320;SDS011;62738;45.772;4.804;2022-10-30T02:34:30;10.52;;;5.28;;
74320;SDS011;62738;45.772;4.804;2022-10-30T02:36:57;12.85;;;4.90;;
74320;SDS011;62738;45.772;4.804;2022-10-30T02:39:23;10.77;;;4.97;;
74320;SDS011;62738;45.772;4.804;2022-10-30T02:41:50;15.10;;;5.60;;
74320;SDS011;62738;45.772;4.804;2022-10-30T02:44:16;10.80;;;5.00;;
74320;SDS011;62738;45.772;4.804;2022-10-30T02:46:43;12.40;;;5.30;;
74320;SDS011;62738;45.772;4.804;2022-10-30T02:49:09;12.18;;;4.88;;
74320;SDS011;62738;45.772;4.804;2022-10-30T02:51:36;10.82;;;4.82;;
74320;SDS011;62738;45.772;4.804;2022-10-30T02:54:03;9.73;;;5.10;;
74320;SDS011;62738;45.772;4.804;2022-10-30T02:56:29;9.55;;;4.75;;
74320;SDS011;62738;45.772;4.804;2022-10-30T02:58:56;10.75;;;4.60;;
74320;SDS011;62738;45.772;4.804;2022-10-30T03:01:22;12.30;;;5.18;;
74320;SDS011;62738;45.772;4.804;2022-10-30T03:03:49;9.95;;;4.75;;
74320;SDS011;62738;45.772;4.804;2022-10-30T03:06:16;10.98;;;4.82;;
74320;SDS011;62738;45.772;4.804;2022-10-30T03:08:43;9.93;;;4.97;;
74320;SDS011;62738;45.772;4.804;2022-10-30T03:11:13;11.30;;;4.88;;
74320;SDS011;62738;45.772;4.804;2022-10-30T03:16:09;12.18;;;4.75;;
74320;SDS011;62738;45.772;4.804;2022-10-30T03:18:37;15.45;;;5.00;;
74320;SDS011;62738;45.772;4.804;2022-10-30T03:21:05;9.20;;;4.20;;
74320;SDS011;62738;45.772;4.804;2022-10-30T03:23:34;11.65;;;4.88;;
74320;SDS011;62738;45.772;4.804;2022-10-30T03:26:01;11.77;;;4.85;;
74320;SDS011;62738;45.772;4.804;2022-10-30T03:28:28;9.30;;;4.93;;
74320;SDS011;62738;45.772;4.804;2022-10-30T03:30:59;8.73;;;4.88;;
74320;SDS011;62738;45.772;4.804;2022-10-30T03:33:33;15.50;;;5.32;;
74320;SDS011;62738;45.772;4.804;2022-10-30T03:36:01;11.57;;;4.78;;
74320;SDS011;62738;45.772;4.804;2022-10-30T03:38:28;10.57;;;4.70;;
74320;SDS011;62738;45.772;4.804;2022-10-30T03:40:55;8.85;;;4.60;;
74320;SDS011;62738;45.772;4.804;2022-10-30T03:43:22;10.65;;;4.50;;
74320;SDS011;62738;45.772;4.804;2022-10-30T03:45:50;13.25;;;4.75;;
74320;SDS011;62738;45.772;4.804;2022-10-30T03:48:18;10.35;;;4.60;;
74320;SDS011;62738;45.772;4.804;2022-10-30T03:50:46;9.23;;;4.38;;
74320;SDS011;62738;45.772;4.804;2022-10-30T03:53:13;10.65;;;4.53;;
74320;SDS011;62738;45.772;4.804;2022-10-30T03:55:40;12.70;;;4.40;;
74320;SDS011;62738;45.772;4.804;2022-10-30T03:58:07;9.02;;;4.50;;
74320;SDS011;62738;45.772;4.804;2022-10-30T04:00:33;11.95;;;4.80;;
74320;SDS011;62738;45.772;4.804;2022-10-30T04:03:01;9.82;;;4.40;;
74320;SDS011;62738;45.772;4.804;2022-10-30T04:05:31;8.35;;;4.43;;
74320;SDS011;62738;45.772;4.804;2022-10-30T04:08:10;10.80;;;4.63;;
74320;SDS011;62738;45.772;4.804;2022-10-30T04:10:42;8.70;;;4.35;;
74320;SDS011;62738;45.772;4.804;2022-10-30T04:13:10;9.45;;;4.10;;
74320;SDS011;62738;45.772;4.804;2022-10-30T04:15:38;8.68;;;4.78;;
74320;SDS011;62738;45.772;4.804;2022-10-30T04:18:06;9.18;;;4.35;;
74320;SDS011;62738;45.772;4.804;2022-10-30T04:20:33;9.73;;;4.65;;
74320;SDS011;62738;45.772;4.804;2022-10-30T04:23:01;9.52;;;4.50;;
74320;SDS011;62738;45.772;4.804;2022-10-30T04:25:29;13.57;;;4.45;;
74320;SDS011;62738;45.772;4.804;2022-10-30T04:27:56;8.88;;;4.05;;
74320;SDS011;62738;45.772;4.804;2022-10-30T04:30:23;13.13;;;4.85;;
74320;SDS011;62738;45.772;4.804;2022-10-30T04:32:56;8.30;;;4.30;;
74320;SDS011;62738;45.772;4.804;2022-10-30T04:35:25;7.40;;;4.20;;
74320;SDS011;62738;45.772;4.804;2022-10-30T04:37:59;11.95;;;4.70;;
74320;SDS011;62738;45.772;4.804;2022-10-30T04:40:28;9.73;;;4.32;;
74320;SDS011;62738;45.772;4.804;2022-10-30T04:42:57;10.60;;;4.28;;
74320;SDS011;62738;45.772;4.804;2022-10-30T04:45:25;10.20;;;4.28;;
74320;SDS011;62738;45.772;4.804;2022-10-30T04:47:52;8.38;;;3.92;;
74320;SDS011;62738;45.772;4.804;2022-10-30T04:50:25;14.18;;;4.70;;
74320;SDS011;62738;45.772;4.804;2022-10-30T04:53:01;13.63;;;4.53;;
74320;SDS011;62738;45.772;4.804;2022-10-30T04:55:37;8.55;;;4.05;;
74320;SDS011;62738;45.772;4.804;2022-10-30T04:58:04;12.30;;;4.43;;
74320;SDS011;62738;45.772;4.804;2022-10-30T05:00:33;9.13;;;4.55;;
74320;SDS011;62738;45.772;4.804;2022-10-30T05:03:00;11.07;;;4.22;;
74320;SDS011;62738;45.772;4.804;2022-10-30T05:05:27;10.27;;;4.03;;
74320;SDS011;62738;45.772;4.804;2022-10-30T05:07:54;13.48;;;4.40;;
74320;SDS011;62738;45.772;4.804;2022-10-30T05:10:22;8.55;;;4.22;;
74320;SDS011;62738;45.772;4.804;2022-10-30T05:12:50;12.98;;;4.10;;
74320;SDS011;62738;45.772;4.804;2022-10-30T05:15:17;7.75;;;4.18;;
74320;SDS011;62738;45.772;4.804;2022-10-30T05:17:43;9.45;;;4.90;;
74320;SDS011;62738;45.772;4.804;2022-10-30T05:20:10;9.68;;;4.30;;
74320;SDS011;62738;45.772;4.804;2022-10-30T05:22:43;11.35;;;4.30;;
74320;SDS011;62738;45.772;4.804;2022-10-30T05:25:09;11.43;;;3.88;;
74320;SDS011;62738;45.772;4.804;2022-10-30T05:27:36;8.90;;;4.00;;
74320;SDS011;62738;45.772;4.804;2022-10-30T05:30:02;9.07;;;4.35;;
74320;SDS011;62738;45.772;4.804;2022-10-30T05:32:29;8.95;;;4.15;;
74320;SDS011;62738;45.772;4.804;2022-10-30T05:34:56;7.60;;;3.90;;
74320;SDS011;62738;45.772;4.804;2022-10-30T05:37:23;9.02;;;4.65;;
74320;SDS011;62738;45.772;4.804;2022-10-30T05:39:49;7.78;;;4.43;;
74320;SDS011;62738;45.772;4.804;2022-10-30T05:42:16;12.27;;;4.68;;
74320;SDS011;62738;45.772;4.804;2022-10-30T05:44:43;12.02;;;4.28;;
74320;SDS011;62738;45.772;4.804;2022-10-30T05:47:26;10.30;;;4.53;;
74320;SDS011;62738;45.772;4.804;2022-10-30T05:49:52;9.73;;;4.35;;
74320;SDS011;62738;45.772;4.804;2022-10-30T05:52:19;8.80;;;4.72;;
74320;SDS011;62738;45.772;4.804;2022-10-30T05:54:46;12.10;;;4.38;;
74320;SDS011;62738;45.772;4.804;2022-10-30T05:57:12;9.00;;;4.03;;
74320;SDS011;62738;45.772;4.804;2022-10-30T05:59:39;9.65;;;4.45;;
74320;SDS011;62738;45.772;4.804;2022-10-30T06:02:05;9.80;;;4.35;;
74320;SDS011;62738;45.772;4.804;2022-10-30T06:04:32;9.90;;;4.28;;
74320;SDS011;62738;45.772;4.804;2022-10-30T06:06:59;11.55;;;4.78;;
74320;SDS011;62738;45.772;4.804;2022-10-30T06:09:25;16.50;;;4.35;;
74320;SDS011;62738;45.772;4.804;2022-10-30T06:11:52;8.13;;;4.45;;
74320;SDS011;62738;45.772;4.804;2022-10-30T06:14:19;11.15;;;4.40;;
74320;SDS011;62738;45.772;4.804;2022-10-30T06:16:46;9.00;;;4.45;;
74320;SDS011;62738;45.772;4.804;2022-10-30T06:19:13;10.85;;;4.15;;
74320;SDS011;62738;45.772;4.804;2022-10-30T06:21:44;7.90;;;3.85;;
74320;SDS011;62738;45.772;4.804;2022-10-30T06:24:10;10.40;;;4.60;;
74320;SDS011;62738;45.772;4.804;2022-10-30T06:26:37;10.52;;;4.40;;
74320;SDS011;62738;45.772;4.804;2022-10-30T06:29:04;9.80;;;3.92;;
74320;SDS011;62738;45.772;4.804;2022-10-30T06:31:30;9.32;;;4.25;;
74320;SDS011;62738;45.772;4.804;2022-10-30T06:33:57;8.80;;;4.18;;
74320;SDS011;62738;45.772;4.804;2022-10-30T06:36:24;9.15;;;4.82;;
74320;SDS011;62738;45.772;4.804;2022-10-30T06:38:50;11.85;;;4.22;;
74320;SDS011;62738;45.772;4.804;2022-10-30T06:41:17;10.25;;;4.28;;
74320;SDS011;62738;45.772;4.804;2022-10-30T06:43:43;9.55;;;4.35;;
74320;SDS011;62738;45.772;4.804;2022-10-30T06:46:10;9.07;;;4.30;;
74320;SDS011;62738;45.772;4.804;2022-10-30T06:48:36;9.40;;;4.88;;
74320;SDS011;62738;45.772;4.804;2022-10-30T06:51:03;8.75;;;4.30;;
74320;SDS011;62738;45.772;4.804;2022-10-30T06:53:30;10.50;;;4.65;;
74320;SDS011;62738;45.772;4.804;2022-10-30T06:55:57;9.75;;;4.53;;
74320;SDS011;62738;45.772;4.804;2022-10-30T06:58:25;8.93;;;4.75;;
74320;SDS011;62738;45.772;4.804;2022-10-30T07:00:52;10.38;;;4.90;;
74320;SDS011;62738;45.772;4.804;2022-10-30T07:03:20;11.02;;;4.25;;
74320;SDS011;62738;45.772;4.804;2022-10-30T07:05:47;8.23;;;4.60;;
74320;SDS011;62738;45.772;4.804;2022-10-30T07:08:14;10.05;;;4.80;;
74320;SDS011;62738;45.772;4.804;2022-10-30T07:10:40;12.30;;;5.00;;
74320;SDS011;62738;45.772;4.804;2022-10-30T07:13:07;9.15;;;4.80;;
74320;SDS011;62738;45.772;4.804;2022-10-30T07:15:34;9.75;;;5.00;;
74320;SDS011;62738;45.772;4.804;2022-10-30T07:18:01;12.63;;;5.43;;
74320;SDS011;62738;45.772;4.804;2022-10-30T07:20:29;10.30;;;4.72;;
74320;SDS011;62738;45.772;4.804;2022-10-30T07:22:57;13.95;;;5.25;;
74320;SDS011;62738;45.772;4.804;2022-10-30T07:25:24;15.13;;;5.00;;
74320;SDS011;62738;45.772;4.804;2022-10-30T07:27:52;12.52;;;5.55;;
74320;SDS011;62738;45.772;4.804;2022-10-30T07:30:20;9.57;;;5.35;;
74320;SDS011;62738;45.772;4.804;2022-10-30T07:32:59;12.30;;;4.90;;
74320;SDS011;62738;45.772;4.804;2022-10-30T07:35:28;7.93;;;4.65;;
74320;SDS011;62738;45.772;4.804;2022-10-30T07:37:55;11.63;;;4.70;;
74320;SDS011;62738;45.772;4.804;2022-10-30T07:40:26;10.43;;;5.00;;
74320;SDS011;62738;45.772;4.804;2022-10-30T07:42:56;10.77;;;5.00;;
74320;SDS011;62738;45.772;4.804;2022-10-30T07:45:25;10.65;;;5.00;;
74320;SDS011;62738;45.772;4.804;2022-10-30T07:47:52;11.63;;;4.93;;
74320;SDS011;62738;45.772;4.804;2022-10-30T07:50:19;8.82;;;4.28;;
74320;SDS011;62738;45.772;4.804;2022-10-30T07:52:47;10.38;;;4.53;;
74320;SDS011;62738;45.772;4.804;2022-10-30T07:55:13;13.75;;;4.32;;
74320;SDS011;62738;45.772;4.804;2022-10-30T07:57:41;11.05;;;4.10;;
74320;SDS011;62738;45.772;4.804;2022-10-30T08:00:09;10.07;;;4.60;;
74320;SDS011;62738;45.772;4.804;2022-10-30T08:02:38;8.93;;;4.07;;
74320;SDS011;62738;45.772;4.804;2022-10-30T08:05:05;9.57;;;3.95;;
74320;SDS011;62738;45.772;4.804;2022-10-30T08:07:35;9.85;;;4.35;;
74320;SDS011;62738;45.772;4.804;2022-10-30T08:10:03;11.35;;;4.30;;
74320;SDS011;62738;45.772;4.804;2022-10-30T08:12:31;8.13;;;4.40;;
74320;SDS011;62738;45.772;4.804;2022-10-30T08:14:59;8.48;;;3.65;;
74320;SDS011;62738;45.772;4.804;2022-10-30T08:17:26;9.57;;;4.47;;
74320;SDS011;62738;45.772;4.804;2022-10-30T08:19:53;11.90;;;3.90;;
74320;SDS011;62738;45.772;4.804;2022-10-30T08:22:20;15.77;;;3.60;;
74320;SDS011;62738;45.772;4.804;2022-10-30T08:24:47;10.50;;;4.00;;
74320;SDS011;62738;45.772;4.804;2022-10-30T08:27:13;9.27;;;3.30;;
74320;SDS011;62738;45.772;4.804;2022-10-30T08:29:40;7.97;;;3.70;;
74320;SDS011;62738;45.772;4.804;2022-10-30T08:32:07;7.93;;;3.20;;
74320;SDS011;62738;45.772;4.804;2022-10-30T08:34:33;13.02;;;4.10;;
74320;SDS011;62738;45.772;4.804;2022-10-30T08:37:00;12.63;;;3.92;;
74320;SDS011;62738;45.772;4.804;2022-10-30T08:39:27;10.10;;;3.25;;
74320;SDS011;62738;45.772;4.804;2022-10-30T08:41:55;6.38;;;2.88;;
74320;SDS011;62738;45.772;4.804;2022-10-30T08:44:23;9.63;;;3.50;;
74320;SDS011;62738;45.772;4.804;2022-10-30T08:46:49;10.90;;;3.60;;
74320;SDS011;62738;45.772;4.804;2022-10-30T08:49:16;9.43;;;3.40;;
74320;SDS011;62738;45.772;4.804;2022-10-30T08:51:43;9.82;;;3.42;;
74320;SDS011;62738;45.772;4.804;2022-10-30T08:54:09;9.27;;;2.97;;
74320;SDS011;62738;45.772;4.804;2022-10-30T08:56:36;8.90;;;3.20;;
74320;SDS011;62738;45.772;4.804;2022-10-30T08:59:02;7.10;;;3.10;;
74320;SDS011;62738;45.772;4.804;2022-10-30T09:01:29;7.68;;;3.05;;
74320;SDS011;62738;45.772;4.804;2022-10-30T09:03:56;11.02;;;3.53;;
74320;SDS011;62738;45.772;4.804;2022-10-30T09:06:22;11.07;;;3.45;;
74320;SDS011;62738;45.772;4.804;2022-10-30T09:08:49;9.02;;;4.07;;
74320;SDS011;62738;45.772;4.804;2022-10-30T09:11:15;9.93;;;3.35;;
74320;SDS011;62738;45.772;4.804;2022-10-30T09:13:42;11.63;;;3.47;;
74320;SDS011;62738;45.772;4.804;2022-10-30T09:16:09;8.07;;;3.17;;
74320;SDS011;62738;45.772;4.804;2022-10-30T09:18:36;7.15;;;3.28;;
74320;SDS011;62738;45.772;4.804;2022-10-30T09:21:02;8.45;;;3.10;;
74320;SDS011;62738;45.772;4.804;2022-10-30T09:23:30;9.30;;;3.20;;
74320;SDS011;62738;45.772;4.804;2022-10-30T09:25:57;6.75;;;2.42;;
74320;SDS011;62738;45.772;4.804;2022-10-30T09:28:23;7.25;;;2.78;;
74320;SDS011;62738;45.772;4.804;2022-10-30T09:30:50;7.22;;;2.95;;
74320;SDS011;62738;45.772;4.804;2022-10-30T09:33:21;10.27;;;3.03;;
74320;SDS011;62738;45.772;4.804;2022-10-30T09:35:48;11.20;;;2.80;;
74320;SDS011;62738;45.772;4.804;2022-10-30T09:38:15;7.47;;;2.67;;
74320;SDS011;62738;45.772;4.804;2022-10-30T09:46:20;7.63;;;2.13;;
74320;SDS011;62738;45.772;4.804;2022-10-30T09:52:02;7.07;;;2.40;;
74320;SDS011;62738;45.772;4.804;2022-10-30T09:54:44;7.55;;;2.60;;
74320;SDS011;62738;45.772;4.804;2022-10-30T10:00:17;8.90;;;2.30;;
74320;SDS011;62738;45.772;4.804;2022-10-30T10:02:54;7.00;;;2.38;;
74320;SDS011;62738;45.772;4.804;2022-10-30T10:05:28;7.30;;;2.38;;
74320;SDS011;62738;45.772;4.804;2022-10-30T10:08:07;10.43;;;2.70;;
74320;SDS011;62738;45.772;4.804;2022-10-30T10:10:41;7.68;;;2.10;;
74320;SDS011;62738;45.772;4.804;2022-10-30T10:13:14;4.53;;;1.98;;
74320;SDS011;62738;45.772;4.804;2022-10-30T10:15:53;8.30;;;2.33;;
74320;SDS011;62738;45.772;4.804;2022-10-30T10:18:25;9.25;;;2.22;;
74320;SDS011;62738;45.772;4.804;2022-10-30T10:21:08;4.72;;;1.90;;
74320;SDS011;62738;45.772;4.804;2022-10-30T10:23:46;6.03;;;2.45;;
74320;SDS011;62738;45.772;4.804;2022-10-30T10:26:18;7.40;;;2.20;;
74320;SDS011;62738;45.772;4.804;2022-10-30T10:28:58;8.15;;;2.45;;
74320;SDS011;62738;45.772;4.804;2022-10-30T10:31:33;6.25;;;2.03;;
74320;SDS011;62738;45.772;4.804;2022-10-30T10:34:19;7.03;;;1.90;;
74320;SDS011;62738;45.772;4.804;2022-10-30T10:37:05;6.97;;;2.05;;
74320;SDS011;62738;45.772;4.804;2022-10-30T10:42:23;7.40;;;2.03;;
74320;SDS011;62738;45.772;4.804;2022-10-30T10:45:15;7.75;;;2.25;;
74320;SDS011;62738;45.772;4.804;2022-10-30T10:51:27;4.85;;;1.92;;
74320;SDS011;62738;45.772;4.804;2022-10-30T10:53:31;5.72;;;1.88;;
74320;SDS011;62738;45.772;4.804;2022-10-30T10:56:06;7.03;;;2.05;;
74320;SDS011;62738;45.772;4.804;2022-10-30T10:58:50;7.07;;;2.20;;
74320;SDS011;62738;45.772;4.804;2022-10-30T11:01:28;4.72;;;1.98;;
74320;SDS011;62738;45.772;4.804;2022-10-30T11:04:10;8.13;;;2.10;;
74320;SDS011;62738;45.772;4.804;2022-10-30T11:06:42;7.65;;;2.22;;
74320;SDS011;62738;45.772;4.804;2022-10-30T11:09:20;8.05;;;2.15;;
74320;SDS011;62738;45.772;4.804;2022-10-30T11:11:48;7.50;;;1.85;;
74320;SDS011;62738;45.772;4.804;2022-10-30T11:14:21;6.65;;;2.10;;
74320;SDS011;62738;45.772;4.804;2022-10-30T11:19:57;4.85;;;2.17;;
74320;SDS011;62738;45.772;4.804;2022-10-30T11:22:28;4.28;;;2.00;;
74320;SDS011;62738;45.772;4.804;2022-10-30T11:27:48;6.22;;;2.17;;
74320;SDS011;62738;45.772;4.804;2022-10-30T11:30:21;6.47;;;2.08;;
74320;SDS011;62738;45.772;4.804;2022-10-30T11:32:51;8.27;;;2.33;;
74320;SDS011;62738;45.772;4.804;2022-10-30T11:35:22;8.15;;;2.20;;
74320;SDS011;62738;45.772;4.804;2022-10-30T11:37:50;7.15;;;2.30;;
74320;SDS011;62738;45.772;4.804;2022-10-30T11:40:36;9.10;;;1.90;;
74320;SDS011;62738;45.772;4.804;2022-10-30T11:43:03;7.65;;;1.83;;
74320;SDS011;62738;45.772;4.804;2022-10-30T11:48:07;6.45;;;1.85;;
74320;SDS011;62738;45.772;4.804;2022-10-30T11:50:39;7.22;;;2.10;;
74320;SDS011;62738;45.772;4.804;2022-10-30T11:53:16;3.25;;;1.63;;
74320;SDS011;62738;45.772;4.804;2022-10-30T11:55:47;8.30;;;2.22;;
74320;SDS011;62738;45.772;4.804;2022-10-30T11:58:24;6.93;;;2.00;;
74320;SDS011;62738;45.772;4.804;2022-10-30T12:03:37;6.65;;;2.30;;
74320;SDS011;62738;45.772;4.804;2022-10-30T12:06:06;7.07;;;1.90;;
74320;SDS011;62738;45.772;4.804;2022-10-30T12:08:34;9.05;;;2.20;;
74320;SDS011;62738;45.772;4.804;2022-10-30T12:11:02;9.95;;;2.33;;
74320;SDS011;62738;45.772;4.804;2022-10-30T12:13:32;5.95;;;2.20;;
74320;SDS011;62738;45.772;4.804;2022-10-30T12:16:05;7.63;;;2.03;;
74320;SDS011;62738;45.772;4.804;2022-10-30T12:18:34;7.47;;;2.47;;
74320;SDS011;62738;45.772;4.804;2022-10-30T12:21:02;8.25;;;2.13;;
74320;SDS011;62738;45.772;4.804;2022-10-30T12:23:29;7.32;;;2.70;;
74320;SDS011;62738;45.772;4.804;2022-10-30T12:25:59;8.00;;;3.10;;
74320;SDS011;62738;45.772;4.804;2022-10-30T12:30:57;7.22;;;2.40;;
74320;SDS011;62738;45.772;4.804;2022-10-30T12:33:46;9.85;;;2.90;;
74320;SDS011;62738;45.772;4.804;2022-10-30T12:36:22;10.60;;;2.20;;
74320;SDS011;62738;45.772;4.804;2022-10-30T12:38:56;7.68;;;2.13;;
74320;SDS011;62738;45.772;4.804;2022-10-30T12:41:33;7.65;;;2.40;;
74320;SDS011;62738;45.772;4.804;2022-10-30T12:44:13;4.22;;;2.10;;
74320;SDS011;62738;45.772;4.804;2022-10-30T12:47:05;8.32;;;2.63;;
74320;SDS011;62738;45.772;4.804;2022-10-30T12:50:01;10.88;;;2.92;;
74320;SDS011;62738;45.772;4.804;2022-10-30T12:52:39;7.05;;;2.35;;
74320;SDS011;62738;45.772;4.804;2022-10-30T12:55:15;9.88;;;2.50;;
74320;SDS011;62738;45.772;4.804;2022-10-30T12:58:04;8.85;;;2.50;;
74320;SDS011;62738;45.772;4.804;2022-10-30T13:00:43;16.80;;;2.75;;
74320;SDS011;62738;45.772;4.804;2022-10-30T13:03:21;10.35;;;2.55;;
74320;SDS011;62738;45.772;4.804;2022-10-30T13:05:54;9.77;;;2.20;;
74320;SDS011;62738;45.772;4.804;2022-10-30T13:13:35;7.63;;;1.95;;
74320;SDS011;62738;45.772;4.804;2022-10-30T13:16:07;7.13;;;2.38;;
74320;SDS011;62738;45.772;4.804;2022-10-30T13:18:39;5.03;;;1.80;;
74320;SDS011;62738;45.772;4.804;2022-10-30T13:46:16;4.93;;;1.52;;
74320;SDS011;62738;45.772;4.804;2022-10-30T13:51:36;7.93;;;2.10;;
74320;SDS011;62738;45.772;4.804;2022-10-30T13:56:40;6.63;;;1.95;;
74320;SDS011;62738;45.772;4.804;2022-10-30T14:04:48;6.07;;;1.95;;
74320;SDS011;62738;45.772;4.804;2022-10-30T14:07:26;8.13;;;2.42;;
74320;SDS011;62738;45.772;4.804;2022-10-30T14:23:13;4.57;;;1.88;;
74320;SDS011;62738;45.772;4.804;2022-10-30T14:25:40;6.07;;;1.85;;
74320;SDS011;62738;45.772;4.804;2022-10-30T14:28:17;6.25;;;1.83;;
74320;SDS011;62738;45.772;4.804;2022-10-30T14:30:45;10.77;;;2.05;;
74320;SDS011;62738;45.772;4.804;2022-10-30T14:41:44;9.68;;;2.17;;
74320;SDS011;62738;45.772;4.804;2022-10-30T14:49:48;7.78;;;1.75;;
74320;SDS011;62738;45.772;4.804;2022-10-30T15:03:04;9.65;;;2.25;;
74320;SDS011;62738;45.772;4.804;2022-10-30T15:16:51;7.70;;;1.95;;
74320;SDS011;62738;45.772;4.804;2022-10-30T15:19:18;5.38;;;1.88;;
74320;SDS011;62738;45.772;4.804;2022-10-30T15:21:49;7.07;;;1.92;;
74320;SDS011;62738;45.772;4.804;2022-10-30T15:24:20;8.93;;;1.67;;
74320;SDS011;62738;45.772;4.804;2022-10-30T15:26:57;6.65;;;1.52;;
74320;SDS011;62738;45.772;4.804;2022-10-30T15:29:27;6.38;;;1.95;;
74320;SDS011;62738;45.772;4.804;2022-10-30T15:31:58;7.82;;;2.08;;
74320;SDS011;62738;45.772;4.804;2022-10-30T15:34:26;9.15;;;1.92;;
74320;SDS011;62738;45.772;4.804;2022-10-30T15:36:54;9.43;;;1.92;;
74320;SDS011;62738;45.772;4.804;2022-10-30T15:39:21;4.70;;;1.55;;
74320;SDS011;62738;45.772;4.804;2022-10-30T15:41:58;4.25;;;1.63;;
74320;SDS011;62738;45.772;4.804;2022-10-30T15:44:27;8.50;;;1.95;;
74320;SDS011;62738;45.772;4.804;2022-10-30T15:46:58;9.80;;;2.20;;
74320;SDS011;62738;45.772;4.804;2022-10-30T15:49:28;10.05;;;2.10;;
74320;SDS011;62738;45.772;4.804;2022-10-30T15:51:57;6.50;;;2.10;;
74320;SDS011;62738;45.772;4.804;2022-10-30T15:54:26;4.85;;;1.98;;
74320;SDS011;62738;45.772;4.804;2022-10-30T15:56:57;6.13;;;2.10;;
74320;SDS011;62738;45.772;4.804;2022-10-30T15:59:48;5.18;;;1.92;;
74320;SDS011;62738;45.772;4.804;2022-10-30T16:02:21;7.13;;;2.17;;
74320;SDS011;62738;45.772;4.804;2022-10-30T16:04:52;6.90;;;2.20;;
74320;SDS011;62738;45.772;4.804;2022-10-30T16:07:20;5.82;;;1.90;;
74320;SDS011;62738;45.772;4.804;2022-10-30T16:09:52;6.30;;;2.05;;
74320;SDS011;62738;45.772;4.804;2022-10-30T16:12:28;6.70;;;1.95;;
74320;SDS011;62738;45.772;4.804;2022-10-30T16:14:57;8.52;;;3.20;;
74320;SDS011;62738;45.772;4.804;2022-10-30T16:17:27;7.32;;;2.22;;
74320;SDS011;62738;45.772;4.804;2022-10-30T16:19:54;6.93;;;2.42;;
74320;SDS011;62738;45.772;4.804;2022-10-30T16:22:33;6.20;;;2.10;;
74320;SDS011;62738;45.772;4.804;2022-10-30T16:25:04;5.78;;;1.85;;
74320;SDS011;62738;45.772;4.804;2022-10-30T16:27:32;7.22;;;1.95;;
74320;SDS011;62738;45.772;4.804;2022-10-30T16:29:59;10.68;;;2.53;;
74320;SDS011;62738;45.772;4.804;2022-10-30T16:32:28;11.02;;;2.60;;
74320;SDS011;62738;45.772;4.804;2022-10-30T16:34:56;8.27;;;2.28;;
74320;SDS011;62738;45.772;4.804;2022-10-30T16:37:31;9.73;;;2.45;;
74320;SDS011;62738;45.772;4.804;2022-10-30T16:40:11;8.57;;;2.42;;
74320;SDS011;62738;45.772;4.804;2022-10-30T16:42:47;7.88;;;2.28;;
74320;SDS011;62738;45.772;4.804;2022-10-30T16:45:43;9.18;;;2.63;;
74320;SDS011;62738;45.772;4.804;2022-10-30T16:48:15;7.80;;;2.65;;
74320;SDS011;62738;45.772;4.804;2022-10-30T16:50:45;6.20;;;2.35;;
74320;SDS011;62738;45.772;4.804;2022-10-30T16:53:20;7.25;;;2.75;;
74320;SDS011;62738;45.772;4.804;2022-10-30T16:55:48;5.75;;;1.95;;
74320;SDS011;62738;45.772;4.804;2022-10-30T16:58:16;10.63;;;3.00;;
74320;SDS011;62738;45.772;4.804;2022-10-30T17:01:03;5.45;;;2.40;;
74320;SDS011;62738;45.772;4.804;2022-10-30T17:03:35;8.80;;;2.78;;
74320;SDS011;62738;45.772;4.804;2022-10-30T17:06:06;9.07;;;2.75;;
74320;SDS011;62738;45.772;4.804;2022-10-30T17:08:51;8.57;;;3.17;;
74320;SDS011;62738;45.772;4.804;2022-10-30T17:11:20;8.20;;;3.13;;
74320;SDS011;62738;45.772;4.804;2022-10-30T17:14:00;10.80;;;3.10;;
74320;SDS011;62738;45.772;4.804;2022-10-30T17:16:30;10.45;;;3.08;;
74320;SDS011;62738;45.772;4.804;2022-10-30T17:19:00;7.45;;;2.97;;
74320;SDS011;62738;45.772;4.804;2022-10-30T17:21:47;11.88;;;2.80;;
74320;SDS011;62738;45.772;4.804;2022-10-30T17:24:17;10.85;;;3.17;;
74320;SDS011;62738;45.772;4.804;2022-10-30T17:26:54;9.73;;;3.22;;